sensor_id;sensor_type;location;lat;lon;timestamp;pressure;altitude;pressure_sealevel;temperature;humidity
12666;BME280;58531;59.050;17.416;2023-02-13T00:02:15;101817.63;;;-0.03;100.00
12666;BME280;58531;59.050;17.416;2023-02-13T00:04:42;101807.25;;;0.00;100.00
12666;BME280;58531;59.050;17.416;2023-02-13T00:07:10;101799.00;;;0.01;100.00
12666;BME280;58531;59.050;17.416;2023-02-13T00:09:37;101795.09;;;-0.04;100.00
12666;BME280;58531;59.050;17.416;2023-02-13T00:12:06;101796.81;;;0.03;100.00
12666;BME280;58531;59.050;17.416;2023-02-13T00:14:34;101792.91;;;-0.03;100.00
12666;BME280;58531;59.050;17.416;2023-02-13T00:17:01;101790.09;;;-0.09;100.00
12666;BME280;58531;59.050;17.416;2023-02-13T00:19:28;101793.47;;;-0.09;100.00
12666;BME280;58531;59.050;17.416;2023-02-13T00:21:55;101796.19;;;-0.05;100.00
12666;BME280;58531;59.050;17.416;2023-02-13T00:24:23;101799.91;;;-0.06;100.00
12666;BME280;58531;59.050;17.416;2023-02-13T00:26:50;101794.22;;;-0.08;100.00
12666;BME280;58531;59.050;17.416;2023-02-13T00:29:17;101805.31;;;-0.15;100.00
12666;BME280;58531;59.050;17.416;2023-02-13T00:31:44;101803.78;;;-0.16;100.00
12666;BME280;58531;59.050;17.416;2023-02-13T00:34:11;101793.38;;;-0.12;100.00
12666;BME280;58531;59.050;17.416;2023-02-13T00:36:38;101797.97;;;-0.09;100.00
12666;BME280;58531;59.050;17.416;2023-02-13T00:39:05;101786.59;;;-0.13;100.00
12666;BME280;58531;59.050;17.416;2023-02-13T00:41:33;101793.47;;;-0.09;100.00
12666;BME280;58531;59.050;17.416;2023-02-13T00:44:00;101783.72;;;-0.08;100.00
12666;BME280;58531;59.050;17.416;2023-02-13T00:46:26;101778.88;;;0.05;100.00
12666;BME280;58531;59.050;17.416;2023-02-13T00:48:53;101776.47;;;0.00;100.00
12666;BME280;58531;59.050;17.416;2023-02-13T00:51:20;101777.22;;;0.01;100.00
12666;BME280;58531;59.050;17.416;2023-02-13T00:53:47;101775.72;;;0.00;100.00
12666;BME280;58531;59.050;17.416;2023-02-13T00:56:14;101777.50;;;-0.04;100.00
12666;BME280;58531;59.050;17.416;2023-02-13T00:58:42;101779.16;;;-0.11;100.00
12666;BME280;58531;59.050;17.416;2023-02-13T01:01:09;101772.19;;;-0.19;100.00
12666;BME280;58531;59.050;17.416;2023-02-13T01:03:36;101771.31;;;-0.23;100.00
12666;BME280;58531;59.050;17.416;2023-02-13T01:06:03;101777.91;;;-0.29;100.00
12666;BME280;58531;59.050;17.416;2023-02-13T01:08:30;101778.66;;;-0.29;100.00
12666;BME280;58531;59.050;17.416;2023-02-13T01:10:57;101761.63;;;-0.35;100.00
12666;BME280;58531;59.050;17.416;2023-02-13T01:13:25;101774.44;;;-0.33;100.00
12666;BME280;58531;59.050;17.416;2023-02-13T01:15:53;101765.34;;;-0.36;100.00
12666;BME280;58531;59.050;17.416;2023-02-13T01:18:20;101760.25;;;-0.44;100.00
12666;BME280;58531;59.050;17.416;2023-02-13T01:20:55;101755.00;;;-0.44;100.00
12666;BME280;58531;59.050;17.416;2023-02-13T01:23:22;101765.38;;;-0.48;100.00
12666;BME280;58531;59.050;17.416;2023-02-13T01:25:49;101761.56;;;-0.50;100.00
12666;BME280;58531;59.050;17.416;2023-02-13T01:28:16;101758.94;;;-0.50;100.00
12666;BME280;58531;59.050;17.416;2023-02-13T01:30:43;101760.47;;;-0.49;100.00
12666;BME280;58531;59.050;17.416;2023-02-13T01:33:11;101759.69;;;-0.50;100.00
12666;BME280;58531;59.050;17.416;2023-02-13T01:35:38;101755.47;;;-0.54;100.00
12666;BME280;58531;59.050;17.416;2023-02-13T01:38:06;101761.16;;;-0.52;100.00
12666;BME280;58531;59.050;17.416;2023-02-13T01:40:33;101755.47;;;-0.54;100.00
12666;BME280;58531;59.050;17.416;2023-02-13T01:43:00;101756.56;;;-0.55;100.00
12666;BME280;58531;59.050;17.416;2023-02-13T01:45:28;101756.56;;;-0.55;100.00
12666;BME280;58531;59.050;17.416;2023-02-13T01:47:57;101748.69;;;-0.55;100.00
12666;BME280;58531;59.050;17.416;2023-02-13T01:50:35;101751.00;;;-0.54;100.00
12666;BME280;58531;59.050;17.416;2023-02-13T01:53:05;101748.69;;;-0.55;100.00
12666;BME280;58531;59.050;17.416;2023-02-13T01:55:35;101751.00;;;-0.54;100.00
12666;BME280;58531;59.050;17.416;2023-02-13T01:58:06;101748.25;;;-0.57;100.00
12666;BME280;58531;59.050;17.416;2023-02-13T02:00:34;101745.19;;;-0.59;100.00
12666;BME280;58531;59.050;17.416;2023-02-13T02:03:05;101750.00;;;-0.61;100.00
12666;BME280;58531;59.050;17.416;2023-02-13T02:05:35;101742.56;;;-0.59;100.00
12666;BME280;58531;59.050;17.416;2023-02-13T02:08:04;101743.44;;;-0.55;100.00
12666;BME280;58531;59.050;17.416;2023-02-13T02:10:32;101739.47;;;-0.37;100.00
12666;BME280;58531;59.050;17.416;2023-02-13T02:13:04;101741.22;;;-0.41;100.00
12666;BME280;58531;59.050;17.416;2023-02-13T02:15:32;101742.41;;;-0.39;100.00
12666;BME280;58531;59.050;17.416;2023-02-13T02:17:59;101734.28;;;-0.34;100.00
12666;BME280;58531;59.050;17.416;2023-02-13T02:20:43;101741.66;;;-0.39;100.00
12666;BME280;58531;59.050;17.416;2023-02-13T02:26:37;101741.09;;;-0.45;100.00
12666;BME280;58531;59.050;17.416;2023-02-13T02:29:32;101743.19;;;-0.38;100.00
12666;BME280;58531;59.050;17.416;2023-02-13T02:32:24;101734.69;;;-0.47;100.00
12666;BME280;58531;59.050;17.416;2023-02-13T02:34:57;101747.38;;;-0.49;100.00
12666;BME280;58531;59.050;17.416;2023-02-13T02:37:43;101734.56;;;-0.51;100.00
12666;BME280;58531;59.050;17.416;2023-02-13T02:40:23;101734.31;;;-0.46;100.00
12666;BME280;58531;59.050;17.416;2023-02-13T02:42:59;101731.69;;;-0.46;100.00
12666;BME280;58531;59.050;17.416;2023-02-13T02:45:34;101734.75;;;-0.44;100.00
12666;BME280;58531;59.050;17.416;2023-02-13T02:48:09;101728.97;;;-0.37;100.00
12666;BME280;58531;59.050;17.416;2023-02-13T02:51:09;101730.69;;;-0.29;100.00
12666;BME280;58531;59.050;17.416;2023-02-13T02:53:44;101725.28;;;-0.21;100.00
12666;BME280;58531;59.050;17.416;2023-02-13T02:56:20;101730.06;;;-0.11;100.00
12666;BME280;58531;59.050;17.416;2023-02-13T02:58:51;101723.28;;;0.03;100.00
12666;BME280;58531;59.050;17.416;2023-02-13T03:01:38;101727.44;;;0.04;100.00
12666;BME280;58531;59.050;17.416;2023-02-13T03:04:29;101728.88;;;0.02;100.00
12666;BME280;58531;59.050;17.416;2023-02-13T03:07:16;101730.16;;;0.08;100.00
12666;BME280;58531;59.050;17.416;2023-02-13T03:09:46;101733.88;;;0.07;100.00
12666;BME280;58531;59.050;17.416;2023-02-13T03:12:35;101736.59;;;0.10;100.00
12666;BME280;58531;59.050;17.416;2023-02-13T03:15:21;101733.75;;;0.15;100.00
12666;BME280;58531;59.050;17.416;2023-02-13T03:17:49;101733.06;;;0.18;100.00
12666;BME280;58531;59.050;17.416;2023-02-13T03:20:43;101727.63;;;0.11;100.00
12666;BME280;58531;59.050;17.416;2023-02-13T03:23:36;101724.91;;;0.08;100.00
12666;BME280;58531;59.050;17.416;2023-02-13T03:26:31;101723.28;;;0.03;100.00
12666;BME280;58531;59.050;17.416;2023-02-13T03:29:22;101726.94;;;-0.01;100.00
12666;BME280;58531;59.050;17.416;2023-02-13T03:32:20;101741.91;;;-0.02;100.00
12666;BME280;58531;59.050;17.416;2023-02-13T03:34:56;101734.94;;;-0.09;100.00
12666;BME280;58531;59.050;17.416;2023-02-13T03:37:49;101727.00;;;-0.13;100.00
12666;BME280;58531;59.050;17.416;2023-02-13T03:40:27;101732.38;;;-0.21;100.00
12666;BME280;58531;59.050;17.416;2023-02-13T03:43:03;101732.97;;;-0.28;100.00
12666;BME280;58531;59.050;17.416;2023-02-13T03:45:36;101738.88;;;-0.31;100.00
12666;BME280;58531;59.050;17.416;2023-02-13T03:48:23;101744.72;;;-0.37;100.00
12666;BME280;58531;59.050;17.416;2023-02-13T03:51:22;101745.25;;;-0.44;100.00
12666;BME280;58531;59.050;17.416;2023-02-13T03:53:54;101740.44;;;-0.42;100.00
12666;BME280;58531;59.050;17.416;2023-02-13T03:56:24;101733.22;;;-0.45;100.00
12666;BME280;58531;59.050;17.416;2023-02-13T03:59:17;101733.81;;;-0.51;100.00
12666;BME280;58531;59.050;17.416;2023-02-13T04:01:52;101744.97;;;-0.54;100.00
12666;BME280;58531;59.050;17.416;2023-02-13T04:04:30;101736.22;;;-0.58;100.00
12666;BME280;58531;59.050;17.416;2023-02-13T04:07:02;101733.00;;;-0.40;100.00
12666;BME280;58531;59.050;17.416;2023-02-13T04:09:34;101731.25;;;-0.36;100.00
12666;BME280;58531;59.050;17.416;2023-02-13T04:12:08;101739.88;;;-0.35;100.00
12666;BME280;58531;59.050;17.416;2023-02-13T04:14:41;101733.44;;;-0.38;100.00
12666;BME280;58531;59.050;17.416;2023-02-13T04:17:16;101740.97;;;-0.36;100.00
12666;BME280;58531;59.050;17.416;2023-02-13T04:19:45;101733.78;;;-0.39;100.00
12666;BME280;58531;59.050;17.416;2023-02-13T04:22:12;101737.94;;;-0.38;100.00
12666;BME280;58531;59.050;17.416;2023-02-13T04:24:40;101735.75;;;-0.36;100.00
12666;BME280;58531;59.050;17.416;2023-02-13T04:27:10;101738.78;;;-0.34;100.00
12666;BME280;58531;59.050;17.416;2023-02-13T04:29:38;101731.16;;;-0.39;100.00
12666;BME280;58531;59.050;17.416;2023-02-13T04:32:05;101734.53;;;-0.39;100.00
12666;BME280;58531;59.050;17.416;2023-02-13T04:34:32;101729.16;;;-0.30;100.00
12666;BME280;58531;59.050;17.416;2023-02-13T04:36:59;101722.47;;;-0.28;100.00
12666;BME280;58531;59.050;17.416;2023-02-13T04:39:26;101721.88;;;-0.21;100.00
12666;BME280;58531;59.050;17.416;2023-02-13T04:41:54;101723.50;;;-0.17;100.00
12666;BME280;58531;59.050;17.416;2023-02-13T04:44:21;101723.09;;;-0.19;100.00
12666;BME280;58531;59.050;17.416;2023-02-13T04:46:48;101711.56;;;-0.14;100.00
12666;BME280;58531;59.050;17.416;2023-02-13T04:49:14;101713.44;;;-0.15;100.00
12666;BME280;58531;59.050;17.416;2023-02-13T04:51:41;101722.00;;;-0.03;100.00
12666;BME280;58531;59.050;17.416;2023-02-13T04:54:09;101723.78;;;-0.06;100.00
12666;BME280;58531;59.050;17.416;2023-02-13T04:56:36;101729.66;;;0.02;100.00
12666;BME280;58531;59.050;17.416;2023-02-13T04:59:05;101722.44;;;-0.01;100.00
12666;BME280;58531;59.050;17.416;2023-02-13T05:01:31;101716.09;;;0.00;100.00
12666;BME280;58531;59.050;17.416;2023-02-13T05:03:58;101715.00;;;0.01;100.00
12666;BME280;58531;59.050;17.416;2023-02-13T05:06:25;101723.06;;;0.08;100.00
12666;BME280;58531;59.050;17.416;2023-02-13T05:08:52;101722.81;;;0.13;100.00
12666;BME280;58531;59.050;17.416;2023-02-13T05:11:19;101717.31;;;0.18;100.00
12666;BME280;58531;59.050;17.416;2023-02-13T05:13:46;101721.59;;;0.26;100.00
12666;BME280;58531;59.050;17.416;2023-02-13T05:16:14;101721.88;;;0.21;100.00
12666;BME280;58531;59.050;17.416;2023-02-13T05:18:41;101718.31;;;0.29;100.00
12666;BME280;58531;59.050;17.416;2023-02-13T05:21:07;101716.78;;;0.28;100.00
12666;BME280;58531;59.050;17.416;2023-02-13T05:23:52;101723.41;;;0.22;100.00
12666;BME280;58531;59.050;17.416;2023-02-13T05:26:18;101723.72;;;0.21;100.00
12666;BME280;58531;59.050;17.416;2023-02-13T05:28:45;101725.44;;;0.29;100.00
12666;BME280;58531;59.050;17.416;2023-02-13T05:31:31;101724.84;;;0.35;100.00
12666;BME280;58531;59.050;17.416;2023-02-13T05:33:58;101714.56;;;0.30;100.00
12666;BME280;58531;59.050;17.416;2023-02-13T05:36:25;101702.88;;;0.43;100.00
12666;BME280;58531;59.050;17.416;2023-02-13T05:38:52;101699.50;;;0.43;100.00
12666;BME280;58531;59.050;17.416;2023-02-13T05:41:19;101703.81;;;0.35;100.00
12666;BME280;58531;59.050;17.416;2023-02-13T05:43:46;101712.22;;;0.41;100.00
12666;BME280;58531;59.050;17.416;2023-02-13T05:46:12;101718.34;;;0.45;100.00
12666;BME280;58531;59.050;17.416;2023-02-13T05:48:41;101720.59;;;0.46;100.00
12666;BME280;58531;59.050;17.416;2023-02-13T05:51:07;101723.91;;;0.43;100.00
12666;BME280;58531;59.050;17.416;2023-02-13T05:53:34;101730.69;;;0.60;100.00
12666;BME280;58531;59.050;17.416;2023-02-13T05:56:02;101736.63;;;0.57;100.00
12666;BME280;58531;59.050;17.416;2023-02-13T05:58:29;101739.78;;;0.62;100.00
12666;BME280;58531;59.050;17.416;2023-02-13T06:00:56;101742.44;;;0.81;100.00
12666;BME280;58531;59.050;17.416;2023-02-13T06:03:24;101741.28;;;0.63;100.00
12666;BME280;58531;59.050;17.416;2023-02-13T06:05:53;101733.00;;;0.46;100.00
12666;BME280;58531;59.050;17.416;2023-02-13T06:08:20;101733.56;;;0.39;100.00
12666;BME280;58531;59.050;17.416;2023-02-13T06:10:48;101747.63;;;0.31;100.00
12666;BME280;58531;59.050;17.416;2023-02-13T06:13:15;101756.03;;;0.21;100.00
12666;BME280;58531;59.050;17.416;2023-02-13T06:15:42;101767.53;;;0.32;100.00
12666;BME280;58531;59.050;17.416;2023-02-13T06:18:09;101770.41;;;0.27;100.00
12666;BME280;58531;59.050;17.416;2023-02-13T06:20:37;101771.78;;;0.21;100.00
12666;BME280;58531;59.050;17.416;2023-02-13T06:23:05;101774.56;;;0.28;100.00
12666;BME280;58531;59.050;17.416;2023-02-13T06:25:33;101772.66;;;0.25;100.00
12666;BME280;58531;59.050;17.416;2023-02-13T06:28:01;101769.91;;;0.22;100.00
12666;BME280;58531;59.050;17.416;2023-02-13T06:30:28;101787.00;;;0.16;100.00
12666;BME280;58531;59.050;17.416;2023-02-13T06:32:55;101780.09;;;0.23;100.00
12666;BME280;58531;59.050;17.416;2023-02-13T06:35:21;101771.94;;;0.28;100.00
12666;BME280;58531;59.050;17.416;2023-02-13T06:37:48;101782.16;;;0.45;100.00
12666;BME280;58531;59.050;17.416;2023-02-13T06:40:17;101801.88;;;0.39;100.00
12666;BME280;58531;59.050;17.416;2023-02-13T06:42:44;101788.66;;;0.36;100.00
12666;BME280;58531;59.050;17.416;2023-02-13T06:45:12;101802.97;;;0.38;100.00
12666;BME280;58531;59.050;17.416;2023-02-13T06:47:40;101802.41;;;0.45;100.00
12666;BME280;58531;59.050;17.416;2023-02-13T06:50:08;101803.16;;;0.45;100.00
12666;BME280;58531;59.050;17.416;2023-02-13T06:52:35;101792.56;;;0.42;100.00
12666;BME280;58531;59.050;17.416;2023-02-13T06:55:02;101792.72;;;0.33;100.00
12666;BME280;58531;59.050;17.416;2023-02-13T06:57:31;101792.88;;;0.25;100.00
12666;BME280;58531;59.050;17.416;2023-02-13T06:59:58;101797.53;;;0.31;100.00
12666;BME280;58531;59.050;17.416;2023-02-13T07:02:25;101803.03;;;0.26;100.00
12666;BME280;58531;59.050;17.416;2023-02-13T07:04:52;101796.78;;;0.31;100.00
12666;BME280;58531;59.050;17.416;2023-02-13T07:07:19;101805.19;;;0.36;100.00
12666;BME280;58531;59.050;17.416;2023-02-13T07:09:46;101808.75;;;0.44;100.00
12666;BME280;58531;59.050;17.416;2023-02-13T07:12:13;101792.56;;;0.42;100.00
12666;BME280;58531;59.050;17.416;2023-02-13T07:14:41;101797.06;;;0.41;100.00
12666;BME280;58531;59.050;17.416;2023-02-13T07:17:08;101799.50;;;0.34;100.00
12666;BME280;58531;59.050;17.416;2023-02-13T07:19:35;101806.88;;;0.44;100.00
12666;BME280;58531;59.050;17.416;2023-02-13T07:22:02;101807.44;;;0.50;100.00
12666;BME280;58531;59.050;17.416;2023-02-13T07:24:29;101809.69;;;0.51;100.00
12666;BME280;58531;59.050;17.416;2023-02-13T07:26:58;101808.59;;;0.52;100.00
12666;BME280;58531;59.050;17.416;2023-02-13T07:29:25;101798.84;;;0.53;100.00
12666;BME280;58531;59.050;17.416;2023-02-13T07:31:53;101793.06;;;0.47;100.00
12666;BME280;58531;59.050;17.416;2023-02-13T07:34:20;101782.16;;;0.45;100.00
12666;BME280;58531;59.050;17.416;2023-02-13T07:36:47;101782.38;;;0.40;100.00
12666;BME280;58531;59.050;17.416;2023-02-13T07:39:14;101785.63;;;0.34;100.00
12666;BME280;58531;59.050;17.416;2023-02-13T07:41:41;101802.91;;;0.35;100.00
12666;BME280;58531;59.050;17.416;2023-02-13T07:44:08;101819.22;;;0.28;100.00
12666;BME280;58531;59.050;17.416;2023-02-13T07:46:35;101816.09;;;0.23;100.00
12666;BME280;58531;59.050;17.416;2023-02-13T07:49:04;101821.25;;;0.19;100.00
12666;BME280;58531;59.050;17.416;2023-02-13T07:51:30;101803.97;;;0.18;100.00
12666;BME280;58531;59.050;17.416;2023-02-13T07:53:57;101795.16;;;0.26;100.00
12666;BME280;58531;59.050;17.416;2023-02-13T07:56:24;101797.53;;;0.31;100.00
12666;BME280;58531;59.050;17.416;2023-02-13T07:58:51;101802.72;;;0.28;100.00
12666;BME280;58531;59.050;17.416;2023-02-13T08:01:18;101803.47;;;0.28;100.00
12666;BME280;58531;59.050;17.416;2023-02-13T08:03:47;101800.00;;;0.24;100.00
12666;BME280;58531;59.050;17.416;2023-02-13T08:06:17;101798.56;;;0.42;100.00
12666;BME280;58531;59.050;17.416;2023-02-13T08:08:44;101801.75;;;0.48;100.00
12666;BME280;58531;59.050;17.416;2023-02-13T08:11:23;101807.44;;;0.65;100.00
12666;BME280;58531;59.050;17.416;2023-02-13T08:14:09;101806.94;;;0.75;100.00
12666;BME280;58531;59.050;17.416;2023-02-13T08:16:36;101807.06;;;0.82;100.00
12666;BME280;58531;59.050;17.416;2023-02-13T08:19:03;101804.59;;;0.89;100.00
12666;BME280;58531;59.050;17.416;2023-02-13T08:21:31;101799.09;;;0.94;100.00
12666;BME280;58531;59.050;17.416;2023-02-13T08:23:59;101797.75;;;1.00;100.00
12666;BME280;58531;59.050;17.416;2023-02-13T08:26:26;101802.47;;;1.10;100.00
12666;BME280;58531;59.050;17.416;2023-02-13T08:28:53;101809.34;;;1.14;100.00
12666;BME280;58531;59.050;17.416;2023-02-13T08:31:19;101820.78;;;1.22;100.00
12666;BME280;58531;59.050;17.416;2023-02-13T08:33:46;101829.25;;;1.31;100.00
12666;BME280;58531;59.050;17.416;2023-02-13T08:36:13;101841.63;;;1.46;100.00
12666;BME280;58531;59.050;17.416;2023-02-13T08:38:41;101862.16;;;1.56;100.00
12666;BME280;58531;59.050;17.416;2023-02-13T08:41:08;101857.09;;;1.66;100.00
12666;BME280;58531;59.050;17.416;2023-02-13T08:43:35;101859.97;;;1.77;100.00
12666;BME280;58531;59.050;17.416;2023-02-13T08:46:02;101867.94;;;1.80;100.00
12666;BME280;58531;59.050;17.416;2023-02-13T08:48:29;101861.97;;;1.83;100.00
12666;BME280;58531;59.050;17.416;2023-02-13T08:50:56;101860.94;;;1.88;100.00
12666;BME280;58531;59.050;17.416;2023-02-13T08:53:22;101862.19;;;1.94;100.00
12666;BME280;58531;59.050;17.416;2023-02-13T08:55:55;101867.53;;;1.97;100.00
12666;BME280;58531;59.050;17.416;2023-02-13T08:58:22;101873.00;;;2.08;100.00
12666;BME280;58531;59.050;17.416;2023-02-13T09:00:49;101876.22;;;2.17;100.00
12666;BME280;58531;59.050;17.416;2023-02-13T09:03:16;101871.78;;;2.21;100.00
12666;BME280;58531;59.050;17.416;2023-02-13T09:05:43;101881.63;;;2.24;100.00
12666;BME280;58531;59.050;17.416;2023-02-13T09:08:10;101883.97;;;2.29;100.00
12666;BME280;58531;59.050;17.416;2023-02-13T09:10:39;101900.00;;;2.39;100.00
12666;BME280;58531;59.050;17.416;2023-02-13T09:13:07;101895.72;;;2.53;100.00
12666;BME280;58531;59.050;17.416;2023-02-13T09:15:37;101905.84;;;2.70;100.00
12666;BME280;58531;59.050;17.416;2023-02-13T09:18:04;101898.75;;;2.74;100.00
12666;BME280;58531;59.050;17.416;2023-02-13T09:20:31;101895.09;;;2.82;100.00
12666;BME280;58531;59.050;17.416;2023-02-13T09:22:58;101889.63;;;2.91;100.00
12666;BME280;58531;59.050;17.416;2023-02-13T09:25:25;101885.22;;;2.98;100.00
12666;BME280;58531;59.050;17.416;2023-02-13T09:27:52;101883.41;;;3.02;100.00
12666;BME280;58531;59.050;17.416;2023-02-13T09:30:20;101882.81;;;3.12;100.00
12666;BME280;58531;59.050;17.416;2023-02-13T09:32:48;101887.91;;;3.24;100.00
12666;BME280;58531;59.050;17.416;2023-02-13T09:35:16;101892.97;;;3.36;100.00
12666;BME280;58531;59.050;17.416;2023-02-13T09:37:43;101882.28;;;3.51;100.00
12666;BME280;58531;59.050;17.416;2023-02-13T09:40:20;101880.22;;;3.67;100.00
12666;BME280;58531;59.050;17.416;2023-02-13T09:42:50;101881.56;;;3.84;100.00
12666;BME280;58531;59.050;17.416;2023-02-13T09:45:21;101885.56;;;4.00;100.00
12666;BME280;58531;59.050;17.416;2023-02-13T09:47:48;101881.63;;;4.17;100.00
12666;BME280;58531;59.050;17.416;2023-02-13T09:50:18;101877.31;;;4.38;100.00
12666;BME280;58531;59.050;17.416;2023-02-13T09:52:48;101880.47;;;4.51;100.00
12666;BME280;58531;59.050;17.416;2023-02-13T09:55:18;101874.84;;;4.56;100.00
12666;BME280;58531;59.050;17.416;2023-02-13T09:57:52;101887.44;;;4.65;100.00
12666;BME280;58531;59.050;17.416;2023-02-13T10:00:25;101883.09;;;4.87;100.00
12666;BME280;58531;59.050;17.416;2023-02-13T10:05:52;101876.69;;;4.91;97.61
12666;BME280;58531;59.050;17.416;2023-02-13T10:08:33;101876.41;;;5.00;96.13
12666;BME280;58531;59.050;17.416;2023-02-13T10:11:15;101887.06;;;5.07;94.44
12666;BME280;58531;59.050;17.416;2023-02-13T10:13:58;101882.19;;;5.12;95.16
12666;BME280;58531;59.050;17.416;2023-02-13T10:16:34;101894.22;;;5.06;93.91
12666;BME280;58531;59.050;17.416;2023-02-13T10:19:04;101893.22;;;5.21;95.82
12666;BME280;58531;59.050;17.416;2023-02-13T10:21:41;101892.16;;;5.29;93.01
12666;BME280;58531;59.050;17.416;2023-02-13T10:24:25;101899.38;;;5.39;94.06
12666;BME280;58531;59.050;17.416;2023-02-13T10:26:56;101883.97;;;5.52;91.98
12666;BME280;58531;59.050;17.416;2023-02-13T10:29:33;101895.38;;;5.63;92.42
12666;BME280;58531;59.050;17.416;2023-02-13T10:32:26;101897.66;;;5.61;90.46
12666;BME280;58531;59.050;17.416;2023-02-13T10:34:58;101897.28;;;5.66;91.40
12666;BME280;58531;59.050;17.416;2023-02-13T10:37:27;101899.69;;;5.81;88.85
12666;BME280;58531;59.050;17.416;2023-02-13T10:39:54;101904.19;;;5.77;86.83
12666;BME280;58531;59.050;17.416;2023-02-13T10:42:22;101916.34;;;5.82;89.25
12666;BME280;58531;59.050;17.416;2023-02-13T10:45:00;101907.66;;;5.81;87.83
12666;BME280;58531;59.050;17.416;2023-02-13T10:50:22;101908.78;;;5.87;86.34
12666;BME280;58531;59.050;17.416;2023-02-13T10:53:00;101921.75;;;5.99;84.91
12666;BME280;58531;59.050;17.416;2023-02-13T10:55:45;101921.41;;;6.11;88.46
12666;BME280;58531;59.050;17.416;2023-02-13T10:58:18;101929.00;;;6.09;84.96
12666;BME280;58531;59.050;17.416;2023-02-13T11:00:48;101932.03;;;6.07;84.15
12666;BME280;58531;59.050;17.416;2023-02-13T11:03:20;101935.81;;;6.06;85.67
12666;BME280;58531;59.050;17.416;2023-02-13T11:05:48;101938.50;;;6.17;84.98
12666;BME280;58531;59.050;17.416;2023-02-13T11:08:18;101941.16;;;6.17;86.30
12666;BME280;58531;59.050;17.416;2023-02-13T11:10:46;101946.09;;;6.25;84.66
12666;BME280;58531;59.050;17.416;2023-02-13T11:13:18;101948.41;;;6.27;83.62
12666;BME280;58531;59.050;17.416;2023-02-13T11:15:57;101936.28;;;6.29;84.17
12666;BME280;58531;59.050;17.416;2023-02-13T11:18:28;101945.41;;;6.39;86.08
12666;BME280;58531;59.050;17.416;2023-02-13T11:20:59;101950.72;;;6.42;82.13
12666;BME280;58531;59.050;17.416;2023-02-13T11:23:38;101942.38;;;6.44;82.01
12666;BME280;58531;59.050;17.416;2023-02-13T11:26:08;101951.47;;;6.39;83.30
12666;BME280;58531;59.050;17.416;2023-02-13T11:28:38;101951.09;;;6.34;80.78
12666;BME280;58531;59.050;17.416;2023-02-13T11:31:20;101949.97;;;6.42;82.47
12666;BME280;58531;59.050;17.416;2023-02-13T11:33:50;101943.53;;;6.46;81.70
12666;BME280;58531;59.050;17.416;2023-02-13T11:36:23;101946.63;;;6.59;82.26
12666;BME280;58531;59.050;17.416;2023-02-13T11:38:59;101947.34;;;6.56;81.11
12666;BME280;58531;59.050;17.416;2023-02-13T11:41:27;101959.91;;;6.66;80.29
12666;BME280;58531;59.050;17.416;2023-02-13T11:43:55;101953.81;;;6.65;79.55
12666;BME280;58531;59.050;17.416;2023-02-13T11:46:28;101948.56;;;6.76;81.81
12666;BME280;58531;59.050;17.416;2023-02-13T11:49:01;101962.97;;;6.89;77.97
12666;BME280;58531;59.050;17.416;2023-02-13T11:51:40;101955.41;;;6.97;77.96
12666;BME280;58531;59.050;17.416;2023-02-13T11:54:24;101954.66;;;6.97;78.21
12666;BME280;58531;59.050;17.416;2023-02-13T11:56:55;101953.13;;;6.99;78.48
12666;BME280;58531;59.050;17.416;2023-02-13T11:59:23;101952.38;;;6.96;79.74
12666;BME280;58531;59.050;17.416;2023-02-13T12:02:13;101952.38;;;6.96;77.93
12666;BME280;58531;59.050;17.416;2023-02-13T12:04:41;101956.94;;;6.98;77.25
12666;BME280;58531;59.050;17.416;2023-02-13T12:07:17;101958.44;;;6.99;77.09
12666;BME280;58531;59.050;17.416;2023-02-13T12:09:46;101969.06;;;6.99;77.30
12666;BME280;58531;59.050;17.416;2023-02-13T12:12:18;101970.97;;;7.02;77.22
12666;BME280;58531;59.050;17.416;2023-02-13T12:14:45;101975.19;;;7.07;76.62
12666;BME280;58531;59.050;17.416;2023-02-13T12:17:15;101974.44;;;7.10;75.66
12666;BME280;58531;59.050;17.416;2023-02-13T12:19:46;101972.91;;;7.09;75.20
12666;BME280;58531;59.050;17.416;2023-02-13T12:22:28;101969.84;;;7.14;74.93
12666;BME280;58531;59.050;17.416;2023-02-13T12:28:11;101976.69;;;7.04;75.80
12666;BME280;58531;59.050;17.416;2023-02-13T12:31:15;101980.50;;;7.17;73.65
12666;BME280;58531;59.050;17.416;2023-02-13T12:34:08;101984.28;;;7.16;74.96
12666;BME280;58531;59.050;17.416;2023-02-13T12:36:53;101993.41;;;7.26;73.49
12666;BME280;58531;59.050;17.416;2023-02-13T12:39:25;101989.22;;;7.21;73.89
12666;BME280;58531;59.050;17.416;2023-02-13T12:42:12;102000.22;;;7.20;74.27
12666;BME280;58531;59.050;17.416;2023-02-13T12:44:59;101994.91;;;7.16;74.69
12666;BME280;58531;59.050;17.416;2023-02-13T12:47:29;102004.78;;;7.19;74.84
12666;BME280;58531;59.050;17.416;2023-02-13T12:50:18;102004.75;;;7.05;76.28
12666;BME280;58531;59.050;17.416;2023-02-13T12:53:00;102003.22;;;7.04;75.13
12666;BME280;58531;59.050;17.416;2023-02-13T12:55:41;102005.53;;;7.09;75.55
12666;BME280;58531;59.050;17.416;2023-02-13T12:58:25;102011.94;;;6.95;77.51
12666;BME280;58531;59.050;17.416;2023-02-13T13:01:02;102029.03;;;7.00;76.27
12666;BME280;58531;59.050;17.416;2023-02-13T13:03:44;102032.03;;;6.96;75.14
12666;BME280;58531;59.050;17.416;2023-02-13T13:06:29;102025.22;;;6.91;76.03
12666;BME280;58531;59.050;17.416;2023-02-13T13:09:18;102033.56;;;6.93;75.69
12666;BME280;58531;59.050;17.416;2023-02-13T13:12:11;102038.13;;;6.99;74.74
12666;BME280;58531;59.050;17.416;2023-02-13T13:14:44;102031.31;;;7.02;74.25